Rotan, Texas
Current Conditions -  °F | °C
As of 8:35 PM on Tuesday 25 Nov 2014 (Local Time) from KSWW Reporting Station
Clear Clear  
Wind Chill: 41°   Ceiling: Unl
Heat Index: 46°   Visibility: 10mi
Dew Point: 19°   Wind: 12mph
Humidity: 33%   Direction: 200°SSW
Pressure: 30.15"   Gusts: NA
Location:  32.85°N, 100.47°W
Report Text: KSWW 260235Z AUTO 20010KT 10SM CLR 08/M07 A3015 RMK AO2 T00801073
Loading
Personal Weather Stations






























Interactive Weather Map New forecast layout! Learn more

10-Day Weather Forecast

Advertisements
Track Severe Weather on mobile